Covington, VA (24426)

6:10 AM EST on January 23, 2017 (GMT -0500)
Dressler Estates | | Change Station

Elev 1270 ft 37.83 °N, 80.00 °W | Updated 15 seconds ago

Rain
Rain
50.5 °F
Feels Like 50.5 °F
N
8.0
Wind Variable Wind from East
Gusts 8.0 mph

Today
High -- | Low -- °F
--% Chance of Precip.
Yesterday
High -- | Low -- °F
Precip. -- in
Pressure 29.30 in
Visibility 10.0 miles
Clouds Mostly Cloudy 1600 ft
Overcast 2200 ft
Dew Point 46 °F
Humidity 83%
Rainfall 0.15 in
Snow Depth Not available.
7:30 AM 5:33 PM
Waning Crescent, 19% visible
METAR KLWB 231055Z AUTO 06014G18KT 10SM BKN016 OVC022 08/06 A2930 RMK AO2 P0002 T00760060
Pressure 29.30 in
Visibility 10.0 miles
Clouds Mostly Cloudy 1600 ft
Overcast 2200 ft
Dew Point 46 °F
Humidity 83%
Rainfall 0.15 in
Snow Depth Not available.
7:30 AM 5:33 PM
Waning Crescent, 19% visible
METAR KLWB 231055Z AUTO 06014G18KT 10SM BKN016 OVC022 08/06 A2930 RMK AO2 P0002 T00760060

Get Your Daily Forecast Email!

Thanks for signing up!

Be on the lookout for a verification email in your inbox.

You'll start receiving the daily forecast at 8 AM.

×

10-Day Weather Forecast

Almanac

Astronomy

Jan. 23, 2017 Rise Set
Actual Time
Civil Twilight
Nautical Twilight
Astronomical Twilight
Moon
Length of Visible Light
Length of Day
Tomorrow will be .
, % of the Moon is Illuminated

Today's Extremes

State Highs State Lows

Community

WunderPhotos

Upload Photos

1,962,540 photos uploaded!

WunderBlog® & News

Nearby

Air Quality

  Air Quality AQ Index Pollutant
Not available.

Snow Depth

Station Depth Elevation

Earthquake Activity

City Distance Mag. Time & Date
Minimum magnitude displayed is 2.5.

Coastal Water Temperatures

Place Temperature

Stations

Nearby Weather Stations

Station Location Temp. Windchill Dew Point Humidity Wind Precip. Elev Updated Type
                   

Watches & Warnings

There are currently no watches in effect.